sensor_id;sensor_type;location;lat;lon;timestamp;temperature;humidity
43015;DHT22;28637;50.554;7.032;2023-03-31T00:02:02;10.50;99.90
43015;DHT22;28637;50.554;7.032;2023-03-31T00:07:07;10.50;99.90
43015;DHT22;28637;50.554;7.032;2023-03-31T00:12:07;10.50;99.90
43015;DHT22;28637;50.554;7.032;2023-03-31T00:17:09;10.50;99.90
43015;DHT22;28637;50.554;7.032;2023-03-31T00:22:09;10.50;99.90
43015;DHT22;28637;50.554;7.032;2023-03-31T00:27:10;10.50;99.90
43015;DHT22;28637;50.554;7.032;2023-03-31T00:32:11;10.40;99.90
43015;DHT22;28637;50.554;7.032;2023-03-31T00:37:13;10.40;99.90
43015;DHT22;28637;50.554;7.032;2023-03-31T00:42:15;10.40;99.90
43015;DHT22;28637;50.554;7.032;2023-03-31T00:47:17;10.50;99.90
43015;DHT22;28637;50.554;7.032;2023-03-31T00:52:34;10.50;99.90
43015;DHT22;28637;50.554;7.032;2023-03-31T00:57:38;10.50;99.90
43015;DHT22;28637;50.554;7.032;2023-03-31T01:02:52;10.50;99.90
43015;DHT22;28637;50.554;7.032;2023-03-31T01:07:55;10.50;99.90
43015;DHT22;28637;50.554;7.032;2023-03-31T01:12:57;10.60;99.90
43015;DHT22;28637;50.554;7.032;2023-03-31T01:17:58;10.60;99.90
43015;DHT22;28637;50.554;7.032;2023-03-31T02:00:01;10.60;99.90
43015;DHT22;28637;50.554;7.032;2023-03-31T02:05:13;10.60;99.90
43015;DHT22;28637;50.554;7.032;2023-03-31T02:10:16;10.50;99.90
43015;DHT22;28637;50.554;7.032;2023-03-31T02:15:24;10.50;99.90
43015;DHT22;28637;50.554;7.032;2023-03-31T02:20:28;10.50;99.90
43015;DHT22;28637;50.554;7.032;2023-03-31T02:25:34;10.50;99.90
43015;DHT22;28637;50.554;7.032;2023-03-31T02:35:54;10.60;99.90
43015;DHT22;28637;50.554;7.032;2023-03-31T02:40:55;10.60;99.90
43015;DHT22;28637;50.554;7.032;2023-03-31T02:45:56;10.50;99.90
43015;DHT22;28637;50.554;7.032;2023-03-31T03:17:49;10.40;99.90
43015;DHT22;28637;50.554;7.032;2023-03-31T03:22:50;10.30;99.90
43015;DHT22;28637;50.554;7.032;2023-03-31T03:27:51;10.40;99.90
43015;DHT22;28637;50.554;7.032;2023-03-31T03:32:54;10.40;99.90
43015;DHT22;28637;50.554;7.032;2023-03-31T03:37:55;10.20;99.90
43015;DHT22;28637;50.554;7.032;2023-03-31T03:42:55;10.20;99.90
43015;DHT22;28637;50.554;7.032;2023-03-31T03:47:56;10.20;99.90
43015;DHT22;28637;50.554;7.032;2023-03-31T03:52:57;10.10;99.90
43015;DHT22;28637;50.554;7.032;2023-03-31T03:57:57;10.10;99.90
43015;DHT22;28637;50.554;7.032;2023-03-31T04:02:58;10.10;99.90
43015;DHT22;28637;50.554;7.032;2023-03-31T04:07:59;10.20;99.90
43015;DHT22;28637;50.554;7.032;2023-03-31T04:12:59;10.10;99.90
43015;DHT22;28637;50.554;7.032;2023-03-31T04:18:00;10.00;99.90
43015;DHT22;28637;50.554;7.032;2023-03-31T04:23:01;9.90;99.90
43015;DHT22;28637;50.554;7.032;2023-03-31T04:28:02;9.90;99.90
43015;DHT22;28637;50.554;7.032;2023-03-31T04:33:02;9.90;99.90
43015;DHT22;28637;50.554;7.032;2023-03-31T04:38:05;9.90;99.90
43015;DHT22;28637;50.554;7.032;2023-03-31T04:43:08;9.80;99.90
43015;DHT22;28637;50.554;7.032;2023-03-31T04:48:09;9.90;99.90
43015;DHT22;28637;50.554;7.032;2023-03-31T04:53:10;9.80;99.90
43015;DHT22;28637;50.554;7.032;2023-03-31T04:58:10;9.80;99.90
43015;DHT22;28637;50.554;7.032;2023-03-31T05:03:11;9.70;99.90
43015;DHT22;28637;50.554;7.032;2023-03-31T05:08:12;9.70;99.90
43015;DHT22;28637;50.554;7.032;2023-03-31T05:13:12;9.70;99.90
43015;DHT22;28637;50.554;7.032;2023-03-31T05:18:13;9.70;99.90
43015;DHT22;28637;50.554;7.032;2023-03-31T05:23:14;9.70;99.90
43015;DHT22;28637;50.554;7.032;2023-03-31T05:28:15;9.70;99.90
43015;DHT22;28637;50.554;7.032;2023-03-31T05:33:15;9.60;99.90
43015;DHT22;28637;50.554;7.032;2023-03-31T05:38:16;9.60;99.90
43015;DHT22;28637;50.554;7.032;2023-03-31T05:43:16;9.50;99.90
43015;DHT22;28637;50.554;7.032;2023-03-31T05:48:17;9.40;99.90
43015;DHT22;28637;50.554;7.032;2023-03-31T05:53:18;9.40;99.90
43015;DHT22;28637;50.554;7.032;2023-03-31T05:58:18;9.30;99.90
43015;DHT22;28637;50.554;7.032;2023-03-31T06:03:19;9.30;99.90
43015;DHT22;28637;50.554;7.032;2023-03-31T06:08:20;9.40;99.90
43015;DHT22;28637;50.554;7.032;2023-03-31T06:13:21;9.40;99.90
43015;DHT22;28637;50.554;7.032;2023-03-31T06:18:22;9.50;99.90
43015;DHT22;28637;50.554;7.032;2023-03-31T06:23:24;9.70;99.90
43015;DHT22;28637;50.554;7.032;2023-03-31T06:28:25;9.70;99.90
43015;DHT22;28637;50.554;7.032;2023-03-31T06:33:25;9.90;99.90
43015;DHT22;28637;50.554;7.032;2023-03-31T06:38:26;9.90;99.90
43015;DHT22;28637;50.554;7.032;2023-03-31T06:43:27;10.00;99.90
43015;DHT22;28637;50.554;7.032;2023-03-31T06:48:28;10.10;99.90
43015;DHT22;28637;50.554;7.032;2023-03-31T06:53:29;10.00;99.90
43015;DHT22;28637;50.554;7.032;2023-03-31T06:58:30;10.00;99.90
43015;DHT22;28637;50.554;7.032;2023-03-31T07:03:31;10.10;99.90
43015;DHT22;28637;50.554;7.032;2023-03-31T07:08:32;10.20;99.90
43015;DHT22;28637;50.554;7.032;2023-03-31T07:13:32;10.30;99.90
43015;DHT22;28637;50.554;7.032;2023-03-31T07:18:33;10.30;99.90
43015;DHT22;28637;50.554;7.032;2023-03-31T07:23:34;10.30;99.90
43015;DHT22;28637;50.554;7.032;2023-03-31T07:28:35;10.40;99.90
43015;DHT22;28637;50.554;7.032;2023-03-31T07:33:35;10.50;99.90
43015;DHT22;28637;50.554;7.032;2023-03-31T07:38:36;10.60;99.90
43015;DHT22;28637;50.554;7.032;2023-03-31T07:43:37;10.80;99.90
43015;DHT22;28637;50.554;7.032;2023-03-31T07:48:37;10.90;99.90
43015;DHT22;28637;50.554;7.032;2023-03-31T07:53:38;11.00;99.90
43015;DHT22;28637;50.554;7.032;2023-03-31T07:58:39;11.10;99.90
43015;DHT22;28637;50.554;7.032;2023-03-31T08:03:39;11.20;99.90
43015;DHT22;28637;50.554;7.032;2023-03-31T08:08:40;11.30;99.90
43015;DHT22;28637;50.554;7.032;2023-03-31T08:13:42;11.40;99.90
43015;DHT22;28637;50.554;7.032;2023-03-31T08:18:43;11.40;99.90
43015;DHT22;28637;50.554;7.032;2023-03-31T08:23:44;11.50;99.90
43015;DHT22;28637;50.554;7.032;2023-03-31T08:28:45;11.60;99.90
43015;DHT22;28637;50.554;7.032;2023-03-31T08:33:48;11.60;99.90
43015;DHT22;28637;50.554;7.032;2023-03-31T08:38:49;11.70;99.90
43015;DHT22;28637;50.554;7.032;2023-03-31T08:43:50;11.70;99.90
43015;DHT22;28637;50.554;7.032;2023-03-31T08:48:53;11.80;99.90
43015;DHT22;28637;50.554;7.032;2023-03-31T08:53:58;11.90;99.90
43015;DHT22;28637;50.554;7.032;2023-03-31T08:59:02;12.10;99.90
43015;DHT22;28637;50.554;7.032;2023-03-31T09:09:26;12.10;99.90
43015;DHT22;28637;50.554;7.032;2023-03-31T09:20:06;12.10;99.90
43015;DHT22;28637;50.554;7.032;2023-03-31T09:30:27;12.40;99.90
43015;DHT22;28637;50.554;7.032;2023-03-31T09:35:28;12.20;99.90
43015;DHT22;28637;50.554;7.032;2023-03-31T09:40:33;11.90;99.90
43015;DHT22;28637;50.554;7.032;2023-03-31T09:45:34;11.60;99.90
43015;DHT22;28637;50.554;7.032;2023-03-31T09:50:59;11.10;99.90
43015;DHT22;28637;50.554;7.032;2023-03-31T09:56:04;10.90;99.90
43015;DHT22;28637;50.554;7.032;2023-03-31T10:01:06;10.90;99.90
43015;DHT22;28637;50.554;7.032;2023-03-31T10:06:09;11.20;99.90
43015;DHT22;28637;50.554;7.032;2023-03-31T10:11:11;11.50;99.90
43015;DHT22;28637;50.554;7.032;2023-03-31T10:21:35;12.20;99.90
43015;DHT22;28637;50.554;7.032;2023-03-31T10:26:36;12.50;99.90
43015;DHT22;28637;50.554;7.032;2023-03-31T10:31:38;12.80;99.90
43015;DHT22;28637;50.554;7.032;2023-03-31T10:36:51;12.70;99.90
43015;DHT22;28637;50.554;7.032;2023-03-31T10:41:52;12.40;99.90
43015;DHT22;28637;50.554;7.032;2023-03-31T10:46:53;11.80;99.90
43015;DHT22;28637;50.554;7.032;2023-03-31T10:51:56;11.50;99.90
43015;DHT22;28637;50.554;7.032;2023-03-31T10:56:58;11.30;99.90
43015;DHT22;28637;50.554;7.032;2023-03-31T11:12:50;12.20;99.90
43015;DHT22;28637;50.554;7.032;2023-03-31T11:23:59;12.70;99.90
43015;DHT22;28637;50.554;7.032;2023-03-31T11:29:42;12.70;99.90
43015;DHT22;28637;50.554;7.032;2023-03-31T11:40:15;12.70;99.90
43015;DHT22;28637;50.554;7.032;2023-03-31T11:45:26;12.80;99.90
43015;DHT22;28637;50.554;7.032;2023-03-31T11:50:32;12.70;99.90
43015;DHT22;28637;50.554;7.032;2023-03-31T11:55:38;12.60;99.90
43015;DHT22;28637;50.554;7.032;2023-03-31T12:01:35;12.70;99.90
43015;DHT22;28637;50.554;7.032;2023-03-31T12:06:38;12.70;99.90
43015;DHT22;28637;50.554;7.032;2023-03-31T12:17:13;10.90;99.90
43015;DHT22;28637;50.554;7.032;2023-03-31T12:27:39;11.40;99.90
43015;DHT22;28637;50.554;7.032;2023-03-31T12:32:54;12.10;99.90
43015;DHT22;28637;50.554;7.032;2023-03-31T12:38:06;12.50;99.90
43015;DHT22;28637;50.554;7.032;2023-03-31T12:43:17;12.90;99.90
43015;DHT22;28637;50.554;7.032;2023-03-31T13:10:57;13.80;99.90
43015;DHT22;28637;50.554;7.032;2023-03-31T13:16:00;13.60;99.90
43015;DHT22;28637;50.554;7.032;2023-03-31T13:21:03;12.80;99.90
43015;DHT22;28637;50.554;7.032;2023-03-31T13:26:04;12.30;99.90
43015;DHT22;28637;50.554;7.032;2023-03-31T13:31:11;12.20;99.90
43015;DHT22;28637;50.554;7.032;2023-03-31T13:52:08;12.50;99.90
43015;DHT22;28637;50.554;7.032;2023-03-31T13:57:34;12.50;99.90
43015;DHT22;28637;50.554;7.032;2023-03-31T14:08:59;11.40;99.90
43015;DHT22;28637;50.554;7.032;2023-03-31T14:13:26;11.10;99.90
43015;DHT22;28637;50.554;7.032;2023-03-31T14:18:31;11.10;99.90
43015;DHT22;28637;50.554;7.032;2023-03-31T14:24:04;11.20;99.90
43015;DHT22;28637;50.554;7.032;2023-03-31T14:34:57;11.80;99.90
43015;DHT22;28637;50.554;7.032;2023-03-31T14:40:03;12.30;99.90
43015;DHT22;28637;50.554;7.032;2023-03-31T14:45:14;12.70;99.90
43015;DHT22;28637;50.554;7.032;2023-03-31T14:50:17;13.00;99.90
43015;DHT22;28637;50.554;7.032;2023-03-31T14:55:22;13.40;99.90
43015;DHT22;28637;50.554;7.032;2023-03-31T15:00:30;13.90;99.90
43015;DHT22;28637;50.554;7.032;2023-03-31T15:05:33;14.30;99.90
43015;DHT22;28637;50.554;7.032;2023-03-31T15:10:38;13.90;99.90
43015;DHT22;28637;50.554;7.032;2023-03-31T15:15:39;13.80;99.90
43015;DHT22;28637;50.554;7.032;2023-03-31T15:20:41;14.00;99.90
43015;DHT22;28637;50.554;7.032;2023-03-31T15:25:43;13.90;99.90
43015;DHT22;28637;50.554;7.032;2023-03-31T15:30:44;13.60;99.90
43015;DHT22;28637;50.554;7.032;2023-03-31T15:35:47;13.40;99.90
43015;DHT22;28637;50.554;7.032;2023-03-31T15:40:52;13.30;99.90
43015;DHT22;28637;50.554;7.032;2023-03-31T15:45:58;13.00;99.90
43015;DHT22;28637;50.554;7.032;2023-03-31T15:51:00;12.90;99.90
43015;DHT22;28637;50.554;7.032;2023-03-31T15:56:02;12.70;99.90
43015;DHT22;28637;50.554;7.032;2023-03-31T16:01:04;12.70;99.90
43015;DHT22;28637;50.554;7.032;2023-03-31T16:06:08;12.80;99.90
43015;DHT22;28637;50.554;7.032;2023-03-31T16:11:21;12.70;99.90
43015;DHT22;28637;50.554;7.032;2023-03-31T16:16:24;12.40;99.90
43015;DHT22;28637;50.554;7.032;2023-03-31T16:21:27;12.30;99.90
43015;DHT22;28637;50.554;7.032;2023-03-31T16:26:31;12.20;99.90
43015;DHT22;28637;50.554;7.032;2023-03-31T16:31:37;12.10;99.90
43015;DHT22;28637;50.554;7.032;2023-03-31T16:36:39;12.10;99.90
43015;DHT22;28637;50.554;7.032;2023-03-31T16:41:40;12.10;99.90
43015;DHT22;28637;50.554;7.032;2023-03-31T16:46:40;12.20;99.90
43015;DHT22;28637;50.554;7.032;2023-03-31T16:51:41;12.20;99.90
43015;DHT22;28637;50.554;7.032;2023-03-31T16:56:41;12.40;99.90
43015;DHT22;28637;50.554;7.032;2023-03-31T17:01:42;12.40;99.90
43015;DHT22;28637;50.554;7.032;2023-03-31T17:06:43;12.40;99.90
43015;DHT22;28637;50.554;7.032;2023-03-31T17:11:43;12.20;99.90
43015;DHT22;28637;50.554;7.032;2023-03-31T17:16:44;12.00;99.90
43015;DHT22;28637;50.554;7.032;2023-03-31T17:21:45;11.80;99.90
43015;DHT22;28637;50.554;7.032;2023-03-31T17:26:46;11.70;99.90
43015;DHT22;28637;50.554;7.032;2023-03-31T17:31:47;11.60;99.90
43015;DHT22;28637;50.554;7.032;2023-03-31T17:36:47;11.50;99.90
43015;DHT22;28637;50.554;7.032;2023-03-31T17:41:50;11.60;99.90
43015;DHT22;28637;50.554;7.032;2023-03-31T17:46:51;11.60;99.90
43015;DHT22;28637;50.554;7.032;2023-03-31T17:51:51;11.30;99.90
43015;DHT22;28637;50.554;7.032;2023-03-31T17:56:52;11.20;99.90
43015;DHT22;28637;50.554;7.032;2023-03-31T18:01:53;11.10;99.90
43015;DHT22;28637;50.554;7.032;2023-03-31T18:06:54;11.20;99.90
43015;DHT22;28637;50.554;7.032;2023-03-31T18:11:55;11.10;99.90
43015;DHT22;28637;50.554;7.032;2023-03-31T18:16:57;10.90;99.90
43015;DHT22;28637;50.554;7.032;2023-03-31T18:21:58;10.80;99.90
43015;DHT22;28637;50.554;7.032;2023-03-31T18:26:59;10.60;99.90
43015;DHT22;28637;50.554;7.032;2023-03-31T18:31:59;10.50;99.90
43015;DHT22;28637;50.554;7.032;2023-03-31T18:37:01;10.50;99.90
43015;DHT22;28637;50.554;7.032;2023-03-31T18:42:02;10.30;99.90
43015;DHT22;28637;50.554;7.032;2023-03-31T18:47:03;10.20;99.90
43015;DHT22;28637;50.554;7.032;2023-03-31T18:52:04;10.00;99.90
43015;DHT22;28637;50.554;7.032;2023-03-31T18:57:04;9.90;99.90
43015;DHT22;28637;50.554;7.032;2023-03-31T19:02:06;9.90;99.90
43015;DHT22;28637;50.554;7.032;2023-03-31T19:07:06;9.90;99.90
43015;DHT22;28637;50.554;7.032;2023-03-31T19:12:07;9.90;99.90
43015;DHT22;28637;50.554;7.032;2023-03-31T19:17:07;9.90;99.90
43015;DHT22;28637;50.554;7.032;2023-03-31T19:22:08;9.90;99.90
43015;DHT22;28637;50.554;7.032;2023-03-31T19:27:10;9.90;99.90
43015;DHT22;28637;50.554;7.032;2023-03-31T19:32:12;9.80;99.90
43015;DHT22;28637;50.554;7.032;2023-03-31T19:37:12;9.90;99.90
43015;DHT22;28637;50.554;7.032;2023-03-31T19:42:13;9.90;99.90
43015;DHT22;28637;50.554;7.032;2023-03-31T19:47:17;9.80;99.90
43015;DHT22;28637;50.554;7.032;2023-03-31T19:52:17;9.80;99.90
43015;DHT22;28637;50.554;7.032;2023-03-31T19:57:18;9.80;99.90
43015;DHT22;28637;50.554;7.032;2023-03-31T20:02:19;9.80;99.90
43015;DHT22;28637;50.554;7.032;2023-03-31T20:07:20;9.80;99.90
43015;DHT22;28637;50.554;7.032;2023-03-31T20:12:20;9.90;99.90
43015;DHT22;28637;50.554;7.032;2023-03-31T20:17:21;10.00;99.90
43015;DHT22;28637;50.554;7.032;2023-03-31T20:22:22;10.00;99.90
43015;DHT22;28637;50.554;7.032;2023-03-31T20:27:22;10.00;99.90
43015;DHT22;28637;50.554;7.032;2023-03-31T20:32:25;10.10;99.90
43015;DHT22;28637;50.554;7.032;2023-03-31T20:37:27;10.20;99.90
43015;DHT22;28637;50.554;7.032;2023-03-31T20:42:27;10.10;99.90
43015;DHT22;28637;50.554;7.032;2023-03-31T20:47:29;10.10;99.90
43015;DHT22;28637;50.554;7.032;2023-03-31T20:52:29;10.10;99.90
43015;DHT22;28637;50.554;7.032;2023-03-31T20:57:30;10.10;99.90
43015;DHT22;28637;50.554;7.032;2023-03-31T21:02:31;10.10;99.90
43015;DHT22;28637;50.554;7.032;2023-03-31T21:07:32;10.10;99.90
43015;DHT22;28637;50.554;7.032;2023-03-31T21:12:33;10.00;99.90
43015;DHT22;28637;50.554;7.032;2023-03-31T21:17:33;10.00;99.90
43015;DHT22;28637;50.554;7.032;2023-03-31T21:22:34;10.00;99.90
43015;DHT22;28637;50.554;7.032;2023-03-31T21:27:35;9.90;99.90
43015;DHT22;28637;50.554;7.032;2023-03-31T21:32:36;9.90;99.90
43015;DHT22;28637;50.554;7.032;2023-03-31T21:37:36;9.80;99.90
43015;DHT22;28637;50.554;7.032;2023-03-31T21:42:37;9.80;99.90
43015;DHT22;28637;50.554;7.032;2023-03-31T21:47:38;9.80;99.90
43015;DHT22;28637;50.554;7.032;2023-03-31T21:52:38;9.70;99.90
43015;DHT22;28637;50.554;7.032;2023-03-31T21:57:39;9.70;99.90
43015;DHT22;28637;50.554;7.032;2023-03-31T22:02:40;9.70;99.90
43015;DHT22;28637;50.554;7.032;2023-03-31T22:07:41;9.60;99.90
43015;DHT22;28637;50.554;7.032;2023-03-31T22:12:42;9.60;99.90
43015;DHT22;28637;50.554;7.032;2023-03-31T22:17:42;9.60;99.90
43015;DHT22;28637;50.554;7.032;2023-03-31T22:22:43;9.60;99.90
43015;DHT22;28637;50.554;7.032;2023-03-31T22:27:44;9.60;99.90
43015;DHT22;28637;50.554;7.032;2023-03-31T22:32:44;9.60;99.90
43015;DHT22;28637;50.554;7.032;2023-03-31T22:37:45;9.60;99.90
43015;DHT22;28637;50.554;7.032;2023-03-31T22:42:46;9.50;99.90
43015;DHT22;28637;50.554;7.032;2023-03-31T22:47:47;9.40;99.90
43015;DHT22;28637;50.554;7.032;2023-03-31T22:52:47;9.40;99.90
43015;DHT22;28637;50.554;7.032;2023-03-31T22:57:48;9.40;99.90
43015;DHT22;28637;50.554;7.032;2023-03-31T23:02:49;9.40;99.90
43015;DHT22;28637;50.554;7.032;2023-03-31T23:07:50;9.40;99.90
43015;DHT22;28637;50.554;7.032;2023-03-31T23:12:51;9.40;99.90
43015;DHT22;28637;50.554;7.032;2023-03-31T23:17:52;9.40;99.90
43015;DHT22;28637;50.554;7.032;2023-03-31T23:22:52;9.30;99.90
43015;DHT22;28637;50.554;7.032;2023-03-31T23:27:53;9.30;99.90
43015;DHT22;28637;50.554;7.032;2023-03-31T23:32:54;9.30;99.90
43015;DHT22;28637;50.554;7.032;2023-03-31T23:37:54;9.20;99.90
43015;DHT22;28637;50.554;7.032;2023-03-31T23:42:55;9.20;99.90
43015;DHT22;28637;50.554;7.032;2023-03-31T23:47:56;9.10;99.90
43015;DHT22;28637;50.554;7.032;2023-03-31T23:52:56;9.10;99.90
43015;DHT22;28637;50.554;7.032;2023-03-31T23:57:58;9.20;99.90
